sensor_id;sensor_type;location;lat;lon;timestamp;temperature;humidity
76040;SHT30;64736;50.462;4.850;2022-11-12T00:00:17;7.79;89.70
76040;SHT30;64736;50.462;4.850;2022-11-12T00:02:46;7.77;89.78
76040;SHT30;64736;50.462;4.850;2022-11-12T00:05:12;7.77;89.66
76040;SHT30;64736;50.462;4.850;2022-11-12T00:07:37;7.54;90.67
76040;SHT30;64736;50.462;4.850;2022-11-12T00:10:04;7.64;89.75
76040;SHT30;64736;50.462;4.850;2022-11-12T00:12:30;7.67;90.22
76040;SHT30;64736;50.462;4.850;2022-11-12T00:14:55;7.58;90.51
76040;SHT30;64736;50.462;4.850;2022-11-12T00:17:21;7.53;90.48
76040;SHT30;64736;50.462;4.850;2022-11-12T00:19:47;7.70;90.15
76040;SHT30;64736;50.462;4.850;2022-11-12T00:22:13;7.71;89.79
76040;SHT30;64736;50.462;4.850;2022-11-12T00:24:39;7.50;90.48
76040;SHT30;64736;50.462;4.850;2022-11-12T00:27:05;7.30;91.40
76040;SHT30;64736;50.462;4.850;2022-11-12T00:29:30;7.24;92.16
76040;SHT30;64736;50.462;4.850;2022-11-12T00:31:56;7.20;92.34
76040;SHT30;64736;50.462;4.850;2022-11-12T00:34:22;7.47;91.02
76040;SHT30;64736;50.462;4.850;2022-11-12T00:36:47;7.19;91.79
76040;SHT30;64736;50.462;4.850;2022-11-12T00:39:13;7.34;91.49
76040;SHT30;64736;50.462;4.850;2022-11-12T00:41:39;7.47;90.71
76040;SHT30;64736;50.462;4.850;2022-11-12T00:44:04;7.20;91.48
76040;SHT30;64736;50.462;4.850;2022-11-12T00:46:30;7.38;90.89
76040;SHT30;64736;50.462;4.850;2022-11-12T00:48:56;7.43;90.57
76040;SHT30;64736;50.462;4.850;2022-11-12T00:51:21;7.38;90.81
76040;SHT30;64736;50.462;4.850;2022-11-12T00:53:48;7.03;92.10
76040;SHT30;64736;50.462;4.850;2022-11-12T00:56:14;7.13;92.29
76040;SHT30;64736;50.462;4.850;2022-11-12T00:58:40;7.17;91.46
76040;SHT30;64736;50.462;4.850;2022-11-12T01:01:08;7.17;91.03
76040;SHT30;64736;50.462;4.850;2022-11-12T01:03:34;7.24;90.97
76040;SHT30;64736;50.462;4.850;2022-11-12T01:08:46;6.96;91.98
76040;SHT30;64736;50.462;4.850;2022-11-12T01:11:14;7.15;91.07
76040;SHT30;64736;50.462;4.850;2022-11-12T01:13:42;7.22;90.86
76040;SHT30;64736;50.462;4.850;2022-11-12T01:16:11;7.26;89.98
76040;SHT30;64736;50.462;4.850;2022-11-12T01:18:37;6.91;91.44
76040;SHT30;64736;50.462;4.850;2022-11-12T01:21:04;6.95;91.78
76040;SHT30;64736;50.462;4.850;2022-11-12T01:23:38;7.23;89.95
76040;SHT30;64736;50.462;4.850;2022-11-12T01:26:05;7.19;90.07
76040;SHT30;64736;50.462;4.850;2022-11-12T01:28:31;7.16;90.26
76040;SHT30;64736;50.462;4.850;2022-11-12T01:30:57;6.75;92.07
76040;SHT30;64736;50.462;4.850;2022-11-12T01:33:34;6.96;91.07
76040;SHT30;64736;50.462;4.850;2022-11-12T01:35:59;6.93;91.57
76040;SHT30;64736;50.462;4.850;2022-11-12T01:38:25;7.00;90.87
76040;SHT30;64736;50.462;4.850;2022-11-12T01:40:51;6.91;91.42
76040;SHT30;64736;50.462;4.850;2022-11-12T01:43:16;6.85;91.19
76040;SHT30;64736;50.462;4.850;2022-11-12T01:45:45;6.81;92.21
76040;SHT30;64736;50.462;4.850;2022-11-12T01:48:36;6.68;92.15
76040;SHT30;64736;50.462;4.850;2022-11-12T01:51:03;6.92;91.30
76040;SHT30;64736;50.462;4.850;2022-11-12T01:53:35;6.84;91.94
76040;SHT30;64736;50.462;4.850;2022-11-12T01:56:04;6.61;92.17
76040;SHT30;64736;50.462;4.850;2022-11-12T01:58:32;6.74;92.61
76040;SHT30;64736;50.462;4.850;2022-11-12T02:01:00;6.57;92.95
76040;SHT30;64736;50.462;4.850;2022-11-12T02:03:26;6.55;93.39
76040;SHT30;64736;50.462;4.850;2022-11-12T02:05:58;6.51;93.81
76040;SHT30;64736;50.462;4.850;2022-11-12T02:08:27;6.47;93.56
76040;SHT30;64736;50.462;4.850;2022-11-12T02:10:54;6.41;93.48
76040;SHT30;64736;50.462;4.850;2022-11-12T02:13:19;6.44;93.87
76040;SHT30;64736;50.462;4.850;2022-11-12T02:16:04;6.34;94.12
76040;SHT30;64736;50.462;4.850;2022-11-12T02:18:31;6.34;93.87
76040;SHT30;64736;50.462;4.850;2022-11-12T02:20:58;6.41;93.10
76040;SHT30;64736;50.462;4.850;2022-11-12T02:23:28;6.26;93.85
76040;SHT30;64736;50.462;4.850;2022-11-12T02:25:53;6.24;94.44
76040;SHT30;64736;50.462;4.850;2022-11-12T02:28:20;6.23;94.18
76040;SHT30;64736;50.462;4.850;2022-11-12T02:30:48;6.10;94.30
76040;SHT30;64736;50.462;4.850;2022-11-12T02:33:14;6.19;94.55
76040;SHT30;64736;50.462;4.850;2022-11-12T02:35:40;6.19;93.96
76040;SHT30;64736;50.462;4.850;2022-11-12T02:38:06;6.21;93.85
76040;SHT30;64736;50.462;4.850;2022-11-12T02:40:32;6.20;93.36
76040;SHT30;64736;50.462;4.850;2022-11-12T02:42:58;6.05;93.74
76040;SHT30;64736;50.462;4.850;2022-11-12T02:45:25;6.16;93.71
76040;SHT30;64736;50.462;4.850;2022-11-12T02:47:51;6.23;93.88
76040;SHT30;64736;50.462;4.850;2022-11-12T02:50:17;6.13;93.75
76040;SHT30;64736;50.462;4.850;2022-11-12T02:52:42;6.19;93.36
76040;SHT30;64736;50.462;4.850;2022-11-12T02:55:09;6.06;93.60
76040;SHT30;64736;50.462;4.850;2022-11-12T02:57:36;6.05;93.61
76040;SHT30;64736;50.462;4.850;2022-11-12T03:00:04;6.06;93.51
76040;SHT30;64736;50.462;4.850;2022-11-12T03:02:30;6.16;93.14
76040;SHT30;64736;50.462;4.850;2022-11-12T03:04:56;6.09;93.54
76040;SHT30;64736;50.462;4.850;2022-11-12T03:07:22;5.93;94.00
76040;SHT30;64736;50.462;4.850;2022-11-12T03:09:47;6.21;92.24
76040;SHT30;64736;50.462;4.850;2022-11-12T03:12:13;6.21;92.37
76040;SHT30;64736;50.462;4.850;2022-11-12T03:14:39;6.27;92.03
76040;SHT30;64736;50.462;4.850;2022-11-12T03:17:05;6.05;92.77
76040;SHT30;64736;50.462;4.850;2022-11-12T03:19:30;6.06;92.47
76040;SHT30;64736;50.462;4.850;2022-11-12T03:21:56;6.05;92.44
76040;SHT30;64736;50.462;4.850;2022-11-12T03:24:22;5.98;92.66
76040;SHT30;64736;50.462;4.850;2022-11-12T03:26:47;6.21;91.61
76040;SHT30;64736;50.462;4.850;2022-11-12T03:29:13;5.88;92.94
76040;SHT30;64736;50.462;4.850;2022-11-12T03:31:39;5.86;93.22
76040;SHT30;64736;50.462;4.850;2022-11-12T03:34:05;5.72;94.01
76040;SHT30;64736;50.462;4.850;2022-11-12T03:36:31;5.90;93.38
76040;SHT30;64736;50.462;4.850;2022-11-12T03:38:56;6.10;92.24
76040;SHT30;64736;50.462;4.850;2022-11-12T03:41:22;6.00;92.62
76040;SHT30;64736;50.462;4.850;2022-11-12T03:43:47;6.26;90.90
76040;SHT30;64736;50.462;4.850;2022-11-12T03:46:13;6.10;91.54
76040;SHT30;64736;50.462;4.850;2022-11-12T03:48:39;5.90;92.13
76040;SHT30;64736;50.462;4.850;2022-11-12T03:51:05;5.76;93.10
76040;SHT30;64736;50.462;4.850;2022-11-12T03:53:31;5.76;93.30
76040;SHT30;64736;50.462;4.850;2022-11-12T03:55:56;5.71;93.80
76040;SHT30;64736;50.462;4.850;2022-11-12T03:58:22;5.89;92.51
76040;SHT30;64736;50.462;4.850;2022-11-12T04:00:48;6.06;91.40
76040;SHT30;64736;50.462;4.850;2022-11-12T04:03:14;5.80;92.53
76040;SHT30;64736;50.462;4.850;2022-11-12T04:05:39;5.72;93.46
76040;SHT30;64736;50.462;4.850;2022-11-12T04:08:24;5.72;93.19
76040;SHT30;64736;50.462;4.850;2022-11-12T04:11:08;5.79;93.13
76040;SHT30;64736;50.462;4.850;2022-11-12T04:13:35;5.68;93.04
76040;SHT30;64736;50.462;4.850;2022-11-12T04:18:49;5.55;93.29
76040;SHT30;64736;50.462;4.850;2022-11-12T04:21:42;5.68;93.18
76040;SHT30;64736;50.462;4.850;2022-11-12T04:24:27;5.73;92.90
76040;SHT30;64736;50.462;4.850;2022-11-12T04:29:50;5.63;93.14
76040;SHT30;64736;50.462;4.850;2022-11-12T04:32:37;5.86;91.65
76040;SHT30;64736;50.462;4.850;2022-11-12T04:35:03;5.79;92.61
76040;SHT30;64736;50.462;4.850;2022-11-12T04:37:31;5.86;91.73
76040;SHT30;64736;50.462;4.850;2022-11-12T04:40:17;5.92;92.28
76040;SHT30;64736;50.462;4.850;2022-11-12T04:43:03;5.59;92.58
76040;SHT30;64736;50.462;4.850;2022-11-12T04:45:50;5.55;92.90
76040;SHT30;64736;50.462;4.850;2022-11-12T04:48:16;5.85;90.88
76040;SHT30;64736;50.462;4.850;2022-11-12T04:50:47;5.62;92.07
76040;SHT30;64736;50.462;4.850;2022-11-12T04:53:14;5.76;91.49
76040;SHT30;64736;50.462;4.850;2022-11-12T04:55:40;5.72;92.17
76040;SHT30;64736;50.462;4.850;2022-11-12T04:58:05;5.82;90.93
76040;SHT30;64736;50.462;4.850;2022-11-12T05:00:31;5.73;91.48
76040;SHT30;64736;50.462;4.850;2022-11-12T05:02:57;5.86;90.82
76040;SHT30;64736;50.462;4.850;2022-11-12T05:05:23;5.79;90.96
76040;SHT30;64736;50.462;4.850;2022-11-12T05:07:49;5.82;90.72
76040;SHT30;64736;50.462;4.850;2022-11-12T05:10:15;5.80;90.44
76040;SHT30;64736;50.462;4.850;2022-11-12T05:12:41;5.75;90.62
76040;SHT30;64736;50.462;4.850;2022-11-12T05:15:08;5.71;91.06
76040;SHT30;64736;50.462;4.850;2022-11-12T05:17:34;5.63;91.24
76040;SHT30;64736;50.462;4.850;2022-11-12T05:20:00;5.69;90.66
76040;SHT30;64736;50.462;4.850;2022-11-12T05:22:26;5.61;91.11
76040;SHT30;64736;50.462;4.850;2022-11-12T05:24:51;5.62;91.24
76040;SHT30;64736;50.462;4.850;2022-11-12T05:27:19;5.59;91.51
76040;SHT30;64736;50.462;4.850;2022-11-12T05:29:45;5.76;90.33
76040;SHT30;64736;50.462;4.850;2022-11-12T05:32:13;5.88;90.18
76040;SHT30;64736;50.462;4.850;2022-11-12T05:34:40;5.79;90.13
76040;SHT30;64736;50.462;4.850;2022-11-12T05:37:07;5.31;92.29
76040;SHT30;64736;50.462;4.850;2022-11-12T05:39:33;5.45;92.26
76040;SHT30;64736;50.462;4.850;2022-11-12T05:41:58;5.76;90.52
76040;SHT30;64736;50.462;4.850;2022-11-12T05:44:25;5.78;90.57
76040;SHT30;64736;50.462;4.850;2022-11-12T05:46:51;5.47;91.74
76040;SHT30;64736;50.462;4.850;2022-11-12T05:49:17;5.72;90.60
76040;SHT30;64736;50.462;4.850;2022-11-12T05:51:43;5.56;91.49
76040;SHT30;64736;50.462;4.850;2022-11-12T05:54:09;5.71;90.68
76040;SHT30;64736;50.462;4.850;2022-11-12T05:56:35;5.55;91.14
76040;SHT30;64736;50.462;4.850;2022-11-12T05:59:03;5.63;91.12
76040;SHT30;64736;50.462;4.850;2022-11-12T06:01:29;5.59;90.66
76040;SHT30;64736;50.462;4.850;2022-11-12T06:03:55;5.52;90.88
76040;SHT30;64736;50.462;4.850;2022-11-12T06:06:22;5.54;91.14
76040;SHT30;64736;50.462;4.850;2022-11-12T06:08:48;5.17;92.26
76040;SHT30;64736;50.462;4.850;2022-11-12T06:11:13;5.20;92.91
76040;SHT30;64736;50.462;4.850;2022-11-12T06:13:39;5.21;92.45
76040;SHT30;64736;50.462;4.850;2022-11-12T06:16:06;5.23;92.76
76040;SHT30;64736;50.462;4.850;2022-11-12T06:18:32;5.59;90.96
76040;SHT30;64736;50.462;4.850;2022-11-12T06:21:05;5.65;90.29
76040;SHT30;64736;50.462;4.850;2022-11-12T06:23:57;5.51;90.59
76040;SHT30;64736;50.462;4.850;2022-11-12T06:26:25;5.38;91.49
76040;SHT30;64736;50.462;4.850;2022-11-12T06:28:52;5.34;91.66
76040;SHT30;64736;50.462;4.850;2022-11-12T06:31:18;5.41;91.13
76040;SHT30;64736;50.462;4.850;2022-11-12T06:33:45;5.06;92.53
76040;SHT30;64736;50.462;4.850;2022-11-12T06:36:14;5.31;92.07
76040;SHT30;64736;50.462;4.850;2022-11-12T06:38:41;5.50;90.58
76040;SHT30;64736;50.462;4.850;2022-11-12T06:41:09;5.44;91.07
76040;SHT30;64736;50.462;4.850;2022-11-12T06:43:35;5.30;91.42
76040;SHT30;64736;50.462;4.850;2022-11-12T06:46:04;5.42;90.96
76040;SHT30;64736;50.462;4.850;2022-11-12T06:48:30;5.26;91.99
76040;SHT30;64736;50.462;4.850;2022-11-12T06:50:57;5.28;91.25
76040;SHT30;64736;50.462;4.850;2022-11-12T06:53:24;5.38;90.82
76040;SHT30;64736;50.462;4.850;2022-11-12T06:55:51;5.55;90.27
76040;SHT30;64736;50.462;4.850;2022-11-12T06:58:17;5.51;90.13
76040;SHT30;64736;50.462;4.850;2022-11-12T07:00:43;5.54;90.85
76040;SHT30;64736;50.462;4.850;2022-11-12T07:03:11;5.50;90.49
76040;SHT30;64736;50.462;4.850;2022-11-12T07:05:38;5.19;92.37
76040;SHT30;64736;50.462;4.850;2022-11-12T07:08:07;5.34;91.48
76040;SHT30;64736;50.462;4.850;2022-11-12T07:10:33;5.31;91.80
76040;SHT30;64736;50.462;4.850;2022-11-12T07:12:58;5.03;93.22
76040;SHT30;64736;50.462;4.850;2022-11-12T07:15:24;5.21;93.17
76040;SHT30;64736;50.462;4.850;2022-11-12T07:17:50;5.24;92.29
76040;SHT30;64736;50.462;4.850;2022-11-12T07:20:16;5.10;93.14
76040;SHT30;64736;50.462;4.850;2022-11-12T07:22:41;4.90;94.05
76040;SHT30;64736;50.462;4.850;2022-11-12T07:25:07;5.11;93.34
76040;SHT30;64736;50.462;4.850;2022-11-12T07:27:33;5.04;94.32
76040;SHT30;64736;50.462;4.850;2022-11-12T07:29:59;4.99;94.37
76040;SHT30;64736;50.462;4.850;2022-11-12T07:32:25;5.01;94.16
76040;SHT30;64736;50.462;4.850;2022-11-12T07:34:51;5.01;94.15
76040;SHT30;64736;50.462;4.850;2022-11-12T07:37:16;5.03;94.11
76040;SHT30;64736;50.462;4.850;2022-11-12T07:39:42;5.09;93.80
76040;SHT30;64736;50.462;4.850;2022-11-12T07:42:08;5.04;93.94
76040;SHT30;64736;50.462;4.850;2022-11-12T07:44:33;5.01;93.95
76040;SHT30;64736;50.462;4.850;2022-11-12T07:46:59;5.17;93.21
76040;SHT30;64736;50.462;4.850;2022-11-12T07:49:25;5.17;93.22
76040;SHT30;64736;50.462;4.850;2022-11-12T07:51:50;5.17;93.42
76040;SHT30;64736;50.462;4.850;2022-11-12T07:54:16;5.21;93.36
76040;SHT30;64736;50.462;4.850;2022-11-12T07:56:41;5.27;93.07
76040;SHT30;64736;50.462;4.850;2022-11-12T07:59:07;5.31;92.89
76040;SHT30;64736;50.462;4.850;2022-11-12T08:01:35;5.32;92.81
76040;SHT30;64736;50.462;4.850;2022-11-12T08:04:03;5.47;92.39
76040;SHT30;64736;50.462;4.850;2022-11-12T08:06:30;5.48;92.33
76040;SHT30;64736;50.462;4.850;2022-11-12T08:08:58;5.58;92.43
76040;SHT30;64736;50.462;4.850;2022-11-12T08:11:24;5.69;91.71
76040;SHT30;64736;50.462;4.850;2022-11-12T08:13:51;5.68;91.75
76040;SHT30;64736;50.462;4.850;2022-11-12T08:16:17;5.63;92.24
76040;SHT30;64736;50.462;4.850;2022-11-12T08:18:43;5.73;92.17
76040;SHT30;64736;50.462;4.850;2022-11-12T08:21:11;5.86;91.50
76040;SHT30;64736;50.462;4.850;2022-11-12T08:23:38;5.79;91.71
76040;SHT30;64736;50.462;4.850;2022-11-12T08:26:05;5.90;91.56
76040;SHT30;64736;50.462;4.850;2022-11-12T08:28:33;5.88;91.52
76040;SHT30;64736;50.462;4.850;2022-11-12T08:31:05;6.02;91.06
76040;SHT30;64736;50.462;4.850;2022-11-12T08:33:31;5.95;91.47
76040;SHT30;64736;50.462;4.850;2022-11-12T08:35:57;6.11;90.87
76040;SHT30;64736;50.462;4.850;2022-11-12T08:38:23;6.14;91.01
76040;SHT30;64736;50.462;4.850;2022-11-12T08:40:48;6.44;90.55
76040;SHT30;64736;50.462;4.850;2022-11-12T08:43:14;6.34;90.80
76040;SHT30;64736;50.462;4.850;2022-11-12T08:45:40;6.34;90.56
76040;SHT30;64736;50.462;4.850;2022-11-12T08:48:09;6.41;91.47
76040;SHT30;64736;50.462;4.850;2022-11-12T08:50:35;6.55;90.77
76040;SHT30;64736;50.462;4.850;2022-11-12T08:53:03;6.74;90.34
76040;SHT30;64736;50.462;4.850;2022-11-12T08:55:30;6.49;90.37
76040;SHT30;64736;50.462;4.850;2022-11-12T08:57:56;6.63;90.76
76040;SHT30;64736;50.462;4.850;2022-11-12T09:00:30;6.72;90.84
76040;SHT30;64736;50.462;4.850;2022-11-12T09:03:01;6.91;89.32
76040;SHT30;64736;50.462;4.850;2022-11-12T09:05:27;7.06;89.82
76040;SHT30;64736;50.462;4.850;2022-11-12T09:08:00;7.05;89.20
76040;SHT30;64736;50.462;4.850;2022-11-12T09:10:26;7.20;88.47
76040;SHT30;64736;50.462;4.850;2022-11-12T09:12:52;7.36;89.84
76040;SHT30;64736;50.462;4.850;2022-11-12T09:15:22;7.38;88.10
76040;SHT30;64736;50.462;4.850;2022-11-12T09:18:00;7.48;89.57
76040;SHT30;64736;50.462;4.850;2022-11-12T09:20:27;7.54;89.99
76040;SHT30;64736;50.462;4.850;2022-11-12T09:23:01;7.70;89.69
76040;SHT30;64736;50.462;4.850;2022-11-12T09:25:27;7.71;90.04
76040;SHT30;64736;50.462;4.850;2022-11-12T09:27:53;7.75;90.17
76040;SHT30;64736;50.462;4.850;2022-11-12T09:30:19;7.75;90.52
76040;SHT30;64736;50.462;4.850;2022-11-12T09:32:45;7.78;90.71
76040;SHT30;64736;50.462;4.850;2022-11-12T09:35:11;7.74;91.19
76040;SHT30;64736;50.462;4.850;2022-11-12T09:37:37;7.92;91.02
76040;SHT30;64736;50.462;4.850;2022-11-12T09:40:04;8.01;90.86
76040;SHT30;64736;50.462;4.850;2022-11-12T09:42:34;7.93;91.26
76040;SHT30;64736;50.462;4.850;2022-11-12T09:45:22;8.16;91.01
76040;SHT30;64736;50.462;4.850;2022-11-12T09:47:58;8.23;91.24
76040;SHT30;64736;50.462;4.850;2022-11-12T09:50:32;8.46;89.61
76040;SHT30;64736;50.462;4.850;2022-11-12T09:53:15;8.46;90.49
76040;SHT30;64736;50.462;4.850;2022-11-12T09:55:45;8.68;90.19
76040;SHT30;64736;50.462;4.850;2022-11-12T09:58:14;9.05;89.81
76040;SHT30;64736;50.462;4.850;2022-11-12T10:00:48;10.36;83.94
76040;SHT30;64736;50.462;4.850;2022-11-12T10:06:03;12.45;75.96
76040;SHT30;64736;50.462;4.850;2022-11-12T10:17:40;13.74;71.52
76040;SHT30;64736;50.462;4.850;2022-11-12T10:20:31;14.71;65.22
76040;SHT30;64736;50.462;4.850;2022-11-12T10:23:21;15.53;62.83
76040;SHT30;64736;50.462;4.850;2022-11-12T10:25:49;15.15;63.37
76040;SHT30;64736;50.462;4.850;2022-11-12T10:30:58;12.97;70.32
76040;SHT30;64736;50.462;4.850;2022-11-12T10:33:30;13.88;68.89
76040;SHT30;64736;50.462;4.850;2022-11-12T10:36:29;14.30;64.92
76040;SHT30;64736;50.462;4.850;2022-11-12T10:38:58;14.46;65.72
76040;SHT30;64736;50.462;4.850;2022-11-12T10:41:27;14.44;69.34
76040;SHT30;64736;50.462;4.850;2022-11-12T10:44:12;14.54;68.97
76040;SHT30;64736;50.462;4.850;2022-11-12T10:46:39;15.08;66.17
76040;SHT30;64736;50.462;4.850;2022-11-12T10:49:10;14.89;65.69
76040;SHT30;64736;50.462;4.850;2022-11-12T10:51:57;16.63;61.05
76040;SHT30;64736;50.462;4.850;2022-11-12T10:56:51;17.52;59.53
76040;SHT30;64736;50.462;4.850;2022-11-12T10:59:19;18.81;55.51
76040;SHT30;64736;50.462;4.850;2022-11-12T11:01:52;19.60;53.55
76040;SHT30;64736;50.462;4.850;2022-11-12T11:04:28;19.37;51.11
76040;SHT30;64736;50.462;4.850;2022-11-12T11:07:22;20.94;49.38
76040;SHT30;64736;50.462;4.850;2022-11-12T11:09:56;20.23;49.37
76040;SHT30;64736;50.462;4.850;2022-11-12T11:12:31;21.56;47.79
76040;SHT30;64736;50.462;4.850;2022-11-12T11:15:19;21.59;46.58
76040;SHT30;64736;50.462;4.850;2022-11-12T11:17:46;21.11;46.65
76040;SHT30;64736;50.462;4.850;2022-11-12T11:20:35;22.59;44.97
76040;SHT30;64736;50.462;4.850;2022-11-12T11:25:38;22.89;44.42
76040;SHT30;64736;50.462;4.850;2022-11-12T11:28:35;22.66;42.80
76040;SHT30;64736;50.462;4.850;2022-11-12T11:31:27;22.35;45.30
76040;SHT30;64736;50.462;4.850;2022-11-12T11:44:49;23.27;39.70
76040;SHT30;64736;50.462;4.850;2022-11-12T11:53:19;25.22;39.03
76040;SHT30;64736;50.462;4.850;2022-11-12T11:55:53;21.66;45.04
76040;SHT30;64736;50.462;4.850;2022-11-12T12:04:12;22.90;40.91
76040;SHT30;64736;50.462;4.850;2022-11-12T12:23:38;25.46;36.74
76040;SHT30;64736;50.462;4.850;2022-11-12T12:32:01;25.69;37.62
76040;SHT30;64736;50.462;4.850;2022-11-12T12:34:38;25.83;35.73
76040;SHT30;64736;50.462;4.850;2022-11-12T12:42:59;25.16;37.79
76040;SHT30;64736;50.462;4.850;2022-11-12T12:45:45;25.83;39.27
76040;SHT30;64736;50.462;4.850;2022-11-12T12:48:30;24.48;38.92
76040;SHT30;64736;50.462;4.850;2022-11-12T12:50:57;25.94;39.49
76040;SHT30;64736;50.462;4.850;2022-11-12T12:58:42;26.17;36.91
76040;SHT30;64736;50.462;4.850;2022-11-12T13:01:27;24.92;39.90
76040;SHT30;64736;50.462;4.850;2022-11-12T13:04:12;25.64;36.64
76040;SHT30;64736;50.462;4.850;2022-11-12T13:17:11;26.83;35.36
76040;SHT30;64736;50.462;4.850;2022-11-12T13:19:46;26.75;35.24
76040;SHT30;64736;50.462;4.850;2022-11-12T13:35:26;25.42;37.73
76040;SHT30;64736;50.462;4.850;2022-11-12T13:37:54;25.29;38.35
76040;SHT30;64736;50.462;4.850;2022-11-12T13:49:04;25.95;39.79
76040;SHT30;64736;50.462;4.850;2022-11-12T13:51:42;25.63;39.75
76040;SHT30;64736;50.462;4.850;2022-11-12T13:54:29;24.67;42.56
76040;SHT30;64736;50.462;4.850;2022-11-12T13:57:12;23.37;44.83
76040;SHT30;64736;50.462;4.850;2022-11-12T13:59:38;22.75;47.92
76040;SHT30;64736;50.462;4.850;2022-11-12T14:02:18;22.31;48.41
76040;SHT30;64736;50.462;4.850;2022-11-12T14:04:45;21.93;49.01
76040;SHT30;64736;50.462;4.850;2022-11-12T14:18:49;20.68;53.10
76040;SHT30;64736;50.462;4.850;2022-11-12T14:21:20;20.51;53.36
76040;SHT30;64736;50.462;4.850;2022-11-12T14:23:48;20.25;54.78
76040;SHT30;64736;50.462;4.850;2022-11-12T14:26:39;20.18;55.18
76040;SHT30;64736;50.462;4.850;2022-11-12T14:29:05;20.06;55.36
76040;SHT30;64736;50.462;4.850;2022-11-12T14:31:31;19.86;55.81
76040;SHT30;64736;50.462;4.850;2022-11-12T14:36:46;19.49;57.55
76040;SHT30;64736;50.462;4.850;2022-11-12T14:39:12;19.49;57.50
76040;SHT30;64736;50.462;4.850;2022-11-12T14:41:40;19.44;57.99
76040;SHT30;64736;50.462;4.850;2022-11-12T14:44:22;19.33;57.93
76040;SHT30;64736;50.462;4.850;2022-11-12T14:46:52;19.14;58.53
76040;SHT30;64736;50.462;4.850;2022-11-12T14:49:38;19.09;59.31
76040;SHT30;64736;50.462;4.850;2022-11-12T14:54:46;18.93;59.82
76040;SHT30;64736;50.462;4.850;2022-11-12T14:57:27;18.81;60.09
76040;SHT30;64736;50.462;4.850;2022-11-12T14:59:53;18.71;59.98
76040;SHT30;64736;50.462;4.850;2022-11-12T15:02:31;18.66;60.13
76040;SHT30;64736;50.462;4.850;2022-11-12T15:05:15;18.51;60.55
76040;SHT30;64736;50.462;4.850;2022-11-12T15:08:01;18.38;60.75
76040;SHT30;64736;50.462;4.850;2022-11-12T15:10:44;18.28;61.22
76040;SHT30;64736;50.462;4.850;2022-11-12T15:13:36;18.09;61.90
76040;SHT30;64736;50.462;4.850;2022-11-12T15:16:05;17.93;62.35
76040;SHT30;64736;50.462;4.850;2022-11-12T15:18:35;17.80;62.68
76040;SHT30;64736;50.462;4.850;2022-11-12T15:21:25;17.65;63.07
76040;SHT30;64736;50.462;4.850;2022-11-12T15:24:03;17.48;63.48
76040;SHT30;64736;50.462;4.850;2022-11-12T15:26:34;17.27;64.08
76040;SHT30;64736;50.462;4.850;2022-11-12T15:29:33;17.11;64.60
76040;SHT30;64736;50.462;4.850;2022-11-12T15:32:00;17.08;64.75
76040;SHT30;64736;50.462;4.850;2022-11-12T15:37:04;16.79;65.55
76040;SHT30;64736;50.462;4.850;2022-11-12T15:39:31;16.67;65.92
76040;SHT30;64736;50.462;4.850;2022-11-12T15:42:02;16.60;66.41
76040;SHT30;64736;50.462;4.850;2022-11-12T15:44:32;16.52;66.52
76040;SHT30;64736;50.462;4.850;2022-11-12T15:47:00;16.32;66.81
76040;SHT30;64736;50.462;4.850;2022-11-12T15:49:26;16.21;66.90
76040;SHT30;64736;50.462;4.850;2022-11-12T15:51:52;16.09;66.84
76040;SHT30;64736;50.462;4.850;2022-11-12T15:54:17;15.94;67.19
76040;SHT30;64736;50.462;4.850;2022-11-12T15:56:43;15.80;67.59
76040;SHT30;64736;50.462;4.850;2022-11-12T15:59:18;15.76;67.50
76040;SHT30;64736;50.462;4.850;2022-11-12T16:01:44;15.71;67.66
76040;SHT30;64736;50.462;4.850;2022-11-12T16:04:11;15.71;67.47
76040;SHT30;64736;50.462;4.850;2022-11-12T16:06:37;15.66;67.57
76040;SHT30;64736;50.462;4.850;2022-11-12T16:09:03;15.54;68.17
76040;SHT30;64736;50.462;4.850;2022-11-12T16:11:29;15.39;68.55
76040;SHT30;64736;50.462;4.850;2022-11-12T16:14:03;15.32;68.42
76040;SHT30;64736;50.462;4.850;2022-11-12T16:16:30;15.26;68.55
76040;SHT30;64736;50.462;4.850;2022-11-12T16:18:55;15.18;68.74
76040;SHT30;64736;50.462;4.850;2022-11-12T16:21:21;15.11;69.15
76040;SHT30;64736;50.462;4.850;2022-11-12T16:23:47;15.03;69.73
76040;SHT30;64736;50.462;4.850;2022-11-12T16:26:20;14.96;70.08
76040;SHT30;64736;50.462;4.850;2022-11-12T16:28:48;14.87;70.46
76040;SHT30;64736;50.462;4.850;2022-11-12T16:31:13;14.71;71.02
76040;SHT30;64736;50.462;4.850;2022-11-12T16:33:39;14.61;71.11
76040;SHT30;64736;50.462;4.850;2022-11-12T16:36:14;14.60;71.45
76040;SHT30;64736;50.462;4.850;2022-11-12T16:38:41;14.51;71.75
76040;SHT30;64736;50.462;4.850;2022-11-12T16:41:10;14.51;72.13
76040;SHT30;64736;50.462;4.850;2022-11-12T16:43:36;14.37;72.46
76040;SHT30;64736;50.462;4.850;2022-11-12T16:46:18;14.09;73.81
76040;SHT30;64736;50.462;4.850;2022-11-12T16:48:46;13.38;75.84
76040;SHT30;64736;50.462;4.850;2022-11-12T16:51:14;14.02;74.25
76040;SHT30;64736;50.462;4.850;2022-11-12T16:53:41;13.96;74.13
76040;SHT30;64736;50.462;4.850;2022-11-12T16:56:11;13.90;74.09
76040;SHT30;64736;50.462;4.850;2022-11-12T16:58:37;13.50;76.28
76040;SHT30;64736;50.462;4.850;2022-11-12T17:01:04;13.69;75.78
76040;SHT30;64736;50.462;4.850;2022-11-12T17:03:30;13.77;75.14
76040;SHT30;64736;50.462;4.850;2022-11-12T17:05:56;13.99;74.28
76040;SHT30;64736;50.462;4.850;2022-11-12T17:08:21;14.12;74.15
76040;SHT30;64736;50.462;4.850;2022-11-12T17:10:47;13.79;74.99
76040;SHT30;64736;50.462;4.850;2022-11-12T17:13:14;13.74;75.09
76040;SHT30;64736;50.462;4.850;2022-11-12T17:15:39;13.38;76.34
76040;SHT30;64736;50.462;4.850;2022-11-12T17:18:05;13.43;76.64
76040;SHT30;64736;50.462;4.850;2022-11-12T17:20:32;13.51;76.38
76040;SHT30;64736;50.462;4.850;2022-11-12T17:22:58;13.55;76.10
76040;SHT30;64736;50.462;4.850;2022-11-12T17:25:24;13.47;76.14
76040;SHT30;64736;50.462;4.850;2022-11-12T17:27:49;13.37;76.52
76040;SHT30;64736;50.462;4.850;2022-11-12T17:30:16;12.92;78.62
76040;SHT30;64736;50.462;4.850;2022-11-12T17:32:41;13.26;77.04
76040;SHT30;64736;50.462;4.850;2022-11-12T17:35:08;13.17;77.38
76040;SHT30;64736;50.462;4.850;2022-11-12T17:37:33;13.02;77.84
76040;SHT30;64736;50.462;4.850;2022-11-12T17:39:59;13.03;77.78
76040;SHT30;64736;50.462;4.850;2022-11-12T17:42:25;12.92;78.16
76040;SHT30;64736;50.462;4.850;2022-11-12T17:44:51;12.79;78.34
76040;SHT30;64736;50.462;4.850;2022-11-12T17:47:16;12.76;78.39
76040;SHT30;64736;50.462;4.850;2022-11-12T17:49:42;12.61;78.95
76040;SHT30;64736;50.462;4.850;2022-11-12T17:52:08;12.51;79.02
76040;SHT30;64736;50.462;4.850;2022-11-12T17:54:33;12.51;79.14
76040;SHT30;64736;50.462;4.850;2022-11-12T17:56:59;12.40;79.68
76040;SHT30;64736;50.462;4.850;2022-11-12T17:59:25;12.30;79.64
76040;SHT30;64736;50.462;4.850;2022-11-12T18:01:51;12.27;79.93
76040;SHT30;64736;50.462;4.850;2022-11-12T18:04:16;12.00;80.99
76040;SHT30;64736;50.462;4.850;2022-11-12T18:06:42;11.82;81.77
76040;SHT30;64736;50.462;4.850;2022-11-12T18:09:12;11.72;82.81